createdAt,value
2023-01-15T00:01:03.406Z,64.96
2023-01-15T00:03:05.345Z,64.85
2023-01-15T00:05:08.002Z,64.48
2023-01-15T00:07:10.193Z,64.73
2023-01-15T00:09:16.782Z,64.37
2023-01-15T00:11:19.662Z,64.52
2023-01-15T00:13:21.809Z,64.68
2023-01-15T00:15:24.121Z,64.45
2023-01-15T00:17:26.423Z,64.18
2023-01-15T00:19:28.581Z,64.34
2023-01-15T00:21:31.323Z,64.56
2023-01-15T00:23:55.642Z,64.29
2023-01-15T00:26:16.722Z,64.01
2023-01-15T00:28:18.925Z,64.12
2023-01-15T00:30:21.612Z,64.41
2023-01-15T00:32:24.291Z,64.22
2023-01-15T00:34:27.589Z,64.07
2023-01-15T00:36:29.873Z,64.00
2023-01-15T00:38:31.955Z,64.29
2023-01-15T00:40:34.142Z,64.08
2023-01-15T00:42:41.286Z,64.31
2023-01-15T00:44:44.410Z,64.10
2023-01-15T00:46:46.710Z,64.20
2023-01-15T00:48:49.828Z,64.22
2023-01-15T00:50:51.971Z,64.04
2023-01-15T00:52:54.227Z,64.28
2023-01-15T00:54:56.232Z,63.77
2023-01-15T00:56:58.484Z,64.35
2023-01-15T00:59:04.080Z,64.05
2023-01-15T01:01:07.133Z,64.10
2023-01-15T01:03:09.572Z,63.66
2023-01-15T01:05:14.367Z,63.66
2023-01-15T01:07:18.593Z,63.88
2023-01-15T01:09:20.698Z,63.52
2023-01-15T01:11:26.992Z,63.69
2023-01-15T01:13:29.195Z,63.57
2023-01-15T01:15:34.093Z,62.87
2023-01-15T01:17:39.037Z,62.60
2023-01-15T01:19:43.641Z,62.81
2023-01-15T01:21:46.986Z,62.79
2023-01-15T01:23:49.566Z,63.00
2023-01-15T01:25:52.009Z,63.13
2023-01-15T01:27:58.161Z,63.06
2023-01-15T01:30:02.016Z,63.18
2023-01-15T01:32:04.561Z,63.43
2023-01-15T01:34:06.872Z,63.48
2023-01-15T01:36:09.299Z,63.41
2023-01-15T01:38:11.402Z,63.31
2023-01-15T01:40:14.684Z,63.58
2023-01-15T01:42:18.034Z,63.56
2023-01-15T01:44:33.126Z,63.46
2023-01-15T01:46:36.811Z,63.91
2023-01-15T01:48:38.937Z,63.83
2023-01-15T01:50:42.539Z,63.58
2023-01-15T01:52:51.885Z,63.75
2023-01-15T01:54:54.693Z,63.57
2023-01-15T01:56:57.357Z,63.72
2023-01-15T01:58:59.803Z,63.51
2023-01-15T02:01:02.531Z,63.27
2023-01-15T02:03:08.068Z,63.19
2023-01-15T02:05:14.852Z,63.18
2023-01-15T02:07:17.529Z,63.33
2023-01-15T02:09:19.719Z,63.51
2023-01-15T02:11:24.646Z,63.18
2023-01-15T02:13:35.800Z,63.03
2023-01-15T02:15:48.317Z,63.24
2023-01-15T02:18:01.956Z,62.92
2023-01-15T02:20:40.619Z,63.27
2023-01-15T02:22:54.705Z,62.77
2023-01-15T02:25:16.935Z,63.23
2023-01-15T02:27:24.871Z,63.17
2023-01-15T02:29:55.878Z,63.04
2023-01-15T02:32:02.475Z,63.64
2023-01-15T02:34:13.733Z,63.44
2023-01-15T02:36:22.009Z,63.41
2023-01-15T02:38:28.775Z,63.36
2023-01-15T02:40:58.628Z,63.26
2023-01-15T02:43:02.170Z,63.45
2023-01-15T02:45:07.899Z,63.78
2023-01-15T02:47:12.133Z,63.85
2023-01-15T02:49:17.926Z,64.15
2023-01-15T02:51:26.125Z,63.88
2023-01-15T02:53:31.585Z,63.68
2023-01-15T02:55:41.817Z,63.67
2023-01-15T02:57:47.317Z,63.64
2023-01-15T02:59:54.048Z,63.12
2023-01-15T03:02:02.920Z,63.41
2023-01-15T03:04:17.708Z,63.51
2023-01-15T03:06:32.078Z,63.82
2023-01-15T03:08:36.001Z,63.54
2023-01-15T03:10:57.182Z,63.86
2023-01-15T03:13:03.473Z,63.49
2023-01-15T03:15:40.838Z,63.78
2023-01-15T03:17:56.879Z,63.52
2023-01-15T03:20:10.105Z,63.92
2023-01-15T03:22:32.626Z,64.04
2023-01-15T03:24:40.689Z,64.35
2023-01-15T03:26:43.978Z,64.33
2023-01-15T03:28:48.680Z,64.10
2023-01-15T03:30:50.766Z,64.00
2023-01-15T03:32:54.920Z,64.03
2023-01-15T03:34:57.950Z,63.90
2023-01-15T03:36:59.882Z,64.12
2023-01-15T03:39:04.636Z,64.05
2023-01-15T03:41:39.668Z,64.11
2023-01-15T03:43:48.448Z,64.18
2023-01-15T03:45:57.106Z,64.24
2023-01-15T03:48:20.416Z,64.12
2023-01-15T03:50:43.055Z,63.86
2023-01-15T03:52:58.500Z,63.91
2023-01-15T03:55:22.148Z,63.79
2023-01-15T03:57:47.702Z,63.49
2023-01-15T03:59:54.636Z,63.41
2023-01-15T04:01:57.945Z,63.61
2023-01-15T04:04:03.146Z,63.45
2023-01-15T04:06:06.857Z,63.33
2023-01-15T04:08:11.981Z,63.41
2023-01-15T04:10:14.015Z,63.08
2023-01-15T04:12:16.549Z,63.32
2023-01-15T04:14:22.291Z,63.51
2023-01-15T04:16:31.072Z,63.33
2023-01-15T04:18:33.853Z,63.42
2023-01-15T04:20:36.236Z,63.77
2023-01-15T04:22:38.582Z,63.72
2023-01-15T04:24:40.547Z,63.38
2023-01-15T04:26:42.556Z,63.37
2023-01-15T04:28:44.419Z,63.27
2023-01-15T04:30:47.553Z,63.40
2023-01-15T04:32:50.232Z,63.37
2023-01-15T04:34:52.139Z,63.65
2023-01-15T04:36:55.047Z,63.25
2023-01-15T04:38:59.416Z,63.57
2023-01-15T04:41:20.954Z,63.17
2023-01-15T04:43:41.260Z,63.48
2023-01-15T04:45:46.634Z,63.22
2023-01-15T04:47:48.450Z,63.23
2023-01-15T04:49:50.405Z,63.26
2023-01-15T04:51:52.420Z,63.46
2023-01-15T04:53:54.501Z,63.28
2023-01-15T04:56:05.093Z,63.64
2023-01-15T04:58:07.741Z,63.11
2023-01-15T05:00:10.255Z,63.21
2023-01-15T05:02:15.046Z,63.24
2023-01-15T05:04:17.633Z,63.53
2023-01-15T05:06:19.860Z,63.67
2023-01-15T05:08:21.875Z,64.03
2023-01-15T05:10:23.831Z,64.39
2023-01-15T05:12:26.552Z,64.17
2023-01-15T05:14:28.637Z,64.24
2023-01-15T05:16:31.994Z,64.33
2023-01-15T05:18:33.993Z,64.32
2023-01-15T05:20:38.821Z,64.18
2023-01-15T05:22:40.747Z,64.21
2023-01-15T05:24:43.027Z,64.11
2023-01-15T05:26:45.516Z,64.21
2023-01-15T05:28:48.536Z,64.45
2023-01-15T05:30:50.442Z,65.02
2023-01-15T05:32:52.324Z,65.17
2023-01-15T05:34:54.480Z,65.15
2023-01-15T05:36:56.639Z,65.27
2023-01-15T05:39:02.384Z,65.23
2023-01-15T05:41:28.523Z,65.10
2023-01-15T05:43:30.456Z,64.98
2023-01-15T05:45:36.269Z,65.10
2023-01-15T05:47:38.144Z,65.11
2023-01-15T05:49:39.951Z,64.70
2023-01-15T05:51:42.642Z,65.08
2023-01-15T05:53:44.669Z,64.65
2023-01-15T05:55:46.850Z,65.52
2023-01-15T05:57:49.341Z,65.66
2023-01-15T05:59:53.419Z,65.91
2023-01-15T06:01:56.013Z,65.97
2023-01-15T06:04:00.343Z,65.38
2023-01-15T06:06:02.900Z,66.19
2023-01-15T06:08:05.008Z,65.77
2023-01-15T06:10:07.704Z,65.92
2023-01-15T06:12:09.581Z,65.52
2023-01-15T06:14:12.816Z,65.68
2023-01-15T06:16:14.789Z,65.95
2023-01-15T06:18:17.029Z,65.57
2023-01-15T06:20:18.955Z,65.70
2023-01-15T06:22:20.802Z,65.77
2023-01-15T06:24:23.185Z,65.87
2023-01-15T06:26:25.157Z,65.80
2023-01-15T06:28:27.270Z,65.59
2023-01-15T06:30:29.210Z,65.71
2023-01-15T06:32:31.087Z,65.85
2023-01-15T06:34:33.097Z,65.55
2023-01-15T06:36:35.281Z,65.15
2023-01-15T06:38:38.007Z,65.47
2023-01-15T06:40:40.444Z,65.27
2023-01-15T06:43:01.114Z,65.73
2023-01-15T06:45:21.690Z,66.09
2023-01-15T06:47:24.833Z,65.92
2023-01-15T06:49:26.880Z,65.47
2023-01-15T06:51:31.051Z,65.57
2023-01-15T06:53:33.113Z,65.57
2023-01-15T06:55:35.183Z,65.33
2023-01-15T06:57:40.048Z,65.04
2023-01-15T06:59:41.910Z,65.60
2023-01-15T07:01:43.731Z,65.29
2023-01-15T07:03:45.701Z,65.23
2023-01-15T07:05:47.999Z,65.47
2023-01-15T07:07:49.837Z,65.67
2023-01-15T07:09:51.798Z,65.45
2023-01-15T07:11:53.658Z,65.84
2023-01-15T07:14:05.956Z,65.24
2023-01-15T07:16:27.068Z,65.24
2023-01-15T07:18:30.894Z,65.31
2023-01-15T07:20:32.947Z,65.29
2023-01-15T07:22:34.782Z,65.26
2023-01-15T07:24:36.673Z,65.23
2023-01-15T07:26:39.753Z,64.93
2023-01-15T07:28:41.938Z,64.89
2023-01-15T07:30:43.881Z,65.00
2023-01-15T07:32:45.773Z,65.42
2023-01-15T07:34:47.621Z,65.30
2023-01-15T07:36:49.536Z,65.21
2023-01-15T07:38:51.582Z,64.28
2023-01-15T07:41:15.182Z,64.27
2023-01-15T07:43:35.735Z,64.17
2023-01-15T07:46:05.736Z,63.07
2023-01-15T07:48:29.324Z,62.29
2023-01-15T07:50:31.208Z,62.66
2023-01-15T07:52:33.212Z,62.77
2023-01-15T07:54:35.106Z,62.72
2023-01-15T07:56:36.971Z,62.87
2023-01-15T07:58:39.242Z,63.03
2023-01-15T08:00:41.982Z,62.56
2023-01-15T08:02:46.064Z,62.88
2023-01-15T08:04:48.132Z,63.07
2023-01-15T08:06:50.145Z,63.17
2023-01-15T08:08:52.152Z,62.80
2023-01-15T08:11:23.362Z,61.84
2023-01-15T08:13:43.951Z,62.68
2023-01-15T08:15:46.695Z,62.15
2023-01-15T08:17:50.459Z,62.12
2023-01-15T08:19:52.372Z,61.30
2023-01-15T08:21:54.475Z,61.35
2023-01-15T08:23:56.412Z,61.62
2023-01-15T08:26:01.476Z,61.41
2023-01-15T08:28:03.814Z,60.71
2023-01-15T08:30:07.778Z,60.99
2023-01-15T08:32:09.914Z,61.23
2023-01-15T08:34:12.189Z,60.20
2023-01-15T08:36:16.029Z,60.22
2023-01-15T08:38:17.990Z,61.02
2023-01-15T08:40:20.115Z,60.28
2023-01-15T08:42:22.059Z,60.02
2023-01-15T08:44:24.913Z,60.53
2023-01-15T08:46:27.017Z,60.54
2023-01-15T08:48:32.038Z,60.59
2023-01-15T08:50:33.944Z,59.81
2023-01-15T08:52:36.377Z,59.84
2023-01-15T08:54:38.455Z,59.92
2023-01-15T08:56:40.488Z,59.79
2023-01-15T08:58:43.131Z,59.05
2023-01-15T09:00:45.089Z,59.44
2023-01-15T09:02:49.276Z,59.40
2023-01-15T09:04:52.940Z,58.93
2023-01-15T09:06:55.008Z,59.40
2023-01-15T09:08:57.175Z,59.18
2023-01-15T09:11:01.568Z,58.84
2023-01-15T09:13:04.578Z,59.44
2023-01-15T09:15:07.057Z,59.09
2023-01-15T09:17:11.883Z,58.96
2023-01-15T09:19:13.732Z,58.91
2023-01-15T09:21:15.854Z,59.00
2023-01-15T09:23:17.929Z,59.31
2023-01-15T09:25:20.358Z,58.80
2023-01-15T09:27:22.298Z,59.36
2023-01-15T09:29:24.097Z,58.60
2023-01-15T09:31:29.081Z,58.53
2023-01-15T09:33:31.243Z,58.31
2023-01-15T09:35:33.221Z,58.54
2023-01-15T09:37:35.366Z,58.32
2023-01-15T09:39:40.899Z,58.42
2023-01-15T09:42:10.321Z,58.71
2023-01-15T09:44:43.585Z,57.62
2023-01-15T09:47:07.043Z,58.50
2023-01-15T09:49:51.813Z,58.49
2023-01-15T09:52:14.362Z,58.57
2023-01-15T09:54:19.381Z,58.10
2023-01-15T09:56:25.636Z,58.52
2023-01-15T09:58:37.224Z,58.35
2023-01-15T10:00:43.869Z,57.57
2023-01-15T10:02:53.228Z,57.34
2023-01-15T10:05:00.325Z,55.54
2023-01-15T10:07:08.623Z,56.41
2023-01-15T10:09:20.590Z,55.73
2023-01-15T10:11:54.093Z,55.83
2023-01-15T10:14:26.492Z,55.13
2023-01-15T10:16:33.865Z,55.03
2023-01-15T10:18:36.076Z,55.76
2023-01-15T10:21:08.454Z,54.51
2023-01-15T10:23:13.573Z,54.53
2023-01-15T10:25:17.753Z,55.49
2023-01-15T10:27:23.174Z,54.98
2023-01-15T10:29:50.439Z,53.79
2023-01-15T10:31:55.130Z,54.33
2023-01-15T10:34:43.954Z,53.84
2023-01-15T10:37:08.523Z,54.99
2023-01-15T10:39:58.594Z,53.44
2023-01-15T10:42:14.919Z,53.62
2023-01-15T10:44:27.248Z,54.58
2023-01-15T10:46:33.882Z,54.50
2023-01-15T10:48:43.016Z,53.29
2023-01-15T10:50:46.290Z,54.75
2023-01-15T10:53:13.416Z,53.72
2023-01-15T10:55:29.551Z,53.15
2023-01-15T10:57:40.322Z,53.21
2023-01-15T10:59:56.205Z,52.99
2023-01-15T11:02:00.288Z,54.12
2023-01-15T11:04:02.524Z,54.74
2023-01-15T11:06:06.801Z,54.86
2023-01-15T11:09:08.769Z,54.56
2023-01-15T11:10:43.894Z,54.93
2023-01-15T11:13:09.412Z,54.44
2023-01-15T11:15:39.844Z,54.40
2023-01-15T11:18:05.583Z,55.73
2023-01-15T11:20:28.163Z,54.01
2023-01-15T11:22:31.075Z,54.36
2023-01-15T11:24:33.004Z,54.67
2023-01-15T11:26:35.207Z,53.93
2023-01-15T11:28:40.915Z,53.97
2023-01-15T11:30:45.412Z,54.47
2023-01-15T11:32:56.958Z,53.48
2023-01-15T11:35:09.265Z,53.72
2023-01-15T11:37:11.670Z,53.76
2023-01-15T11:39:24.643Z,52.79
2023-01-15T11:41:46.382Z,53.13
2023-01-15T11:44:17.334Z,52.08
2023-01-15T11:46:46.828Z,52.70
2023-01-15T11:49:07.458Z,53.64
2023-01-15T11:51:12.485Z,54.69
2023-01-15T11:53:23.030Z,54.17
2023-01-15T11:55:27.186Z,54.38
2023-01-15T11:57:32.835Z,54.25
2023-01-15T11:59:37.103Z,53.95
2023-01-15T12:01:49.891Z,53.81
2023-01-15T12:03:53.257Z,53.01
2023-01-15T12:06:05.736Z,51.94
2023-01-15T12:08:33.947Z,52.28
2023-01-15T12:11:17.494Z,51.89
2023-01-15T12:13:52.581Z,52.69
2023-01-15T12:16:36.218Z,51.99
2023-01-15T12:19:22.826Z,52.97
2023-01-15T12:21:33.631Z,52.58
2023-01-15T12:23:44.759Z,51.67
2023-01-15T12:26:05.577Z,52.71
2023-01-15T12:28:16.758Z,52.14
2023-01-15T12:30:56.271Z,52.51
2023-01-15T12:33:26.474Z,51.33
2023-01-15T12:36:00.352Z,51.72
2023-01-15T12:38:20.460Z,51.21
2023-01-15T12:40:29.185Z,52.04
2023-01-15T12:42:51.831Z,51.97
2023-01-15T12:45:06.170Z,50.94
2023-01-15T12:47:16.447Z,52.01
2023-01-15T12:49:37.221Z,52.09
2023-01-15T12:51:52.492Z,52.00
2023-01-15T12:54:11.430Z,52.37
2023-01-15T12:56:13.307Z,52.64
2023-01-15T12:58:31.130Z,52.14
2023-01-15T13:00:39.401Z,51.62
2023-01-15T13:02:57.389Z,50.98
2023-01-15T13:05:19.434Z,50.72
2023-01-15T13:07:36.145Z,50.14
2023-01-15T13:10:01.716Z,50.33
2023-01-15T13:12:04.057Z,51.09
2023-01-15T13:14:16.656Z,50.95
2023-01-15T13:16:44.367Z,50.42
2023-01-15T13:19:16.654Z,50.60
2023-01-15T13:21:20.535Z,51.63
2023-01-15T13:23:54.845Z,51.28
2023-01-15T13:26:07.093Z,51.13
2023-01-15T13:28:30.014Z,50.87
2023-01-15T13:30:52.477Z,50.64
2023-01-15T13:33:04.953Z,51.17
2023-01-15T13:35:28.312Z,50.64
2023-01-15T13:37:40.668Z,51.66
2023-01-15T13:39:45.344Z,52.14
2023-01-15T13:42:12.376Z,52.36
2023-01-15T13:44:23.140Z,52.17
2023-01-15T13:46:25.119Z,52.50
2023-01-15T13:48:35.202Z,52.15
2023-01-15T13:50:52.316Z,52.45
2023-01-15T13:53:12.976Z,52.56
2023-01-15T13:55:37.520Z,52.83
2023-01-15T13:57:41.583Z,52.66
2023-01-15T13:59:44.824Z,52.91
2023-01-15T14:01:47.106Z,52.84
2023-01-15T14:04:07.174Z,53.11
2023-01-15T14:06:10.011Z,52.75
2023-01-15T14:08:17.170Z,51.99
2023-01-15T14:10:22.299Z,52.84
2023-01-15T14:12:48.857Z,52.98
2023-01-15T14:15:23.928Z,52.46
2023-01-15T14:17:44.496Z,52.67
2023-01-15T14:20:04.793Z,53.29
2023-01-15T14:22:31.430Z,53.14
2023-01-15T14:25:00.800Z,52.85
2023-01-15T14:27:23.976Z,53.45
2023-01-15T14:30:04.550Z,53.61
2023-01-15T14:32:17.225Z,53.89
2023-01-15T14:34:28.525Z,53.98
2023-01-15T14:36:38.375Z,53.98
2023-01-15T14:38:50.434Z,54.05
2023-01-15T14:41:00.155Z,54.30
2023-01-15T14:43:10.322Z,54.50
2023-01-15T14:45:12.181Z,54.48
2023-01-15T14:47:29.443Z,54.29
2023-01-15T14:49:42.777Z,54.51
2023-01-15T14:51:50.273Z,54.32
2023-01-15T14:53:56.097Z,54.82
2023-01-15T14:56:20.179Z,54.95
2023-01-15T14:58:31.192Z,54.64
2023-01-15T15:00:37.963Z,54.68
2023-01-15T15:02:44.467Z,54.66
2023-01-15T15:04:54.151Z,54.74
2023-01-15T15:06:55.894Z,54.70
2023-01-15T15:09:04.940Z,54.72
2023-01-15T15:11:36.870Z,54.67
2023-01-15T15:13:46.855Z,54.93
2023-01-15T15:16:07.666Z,54.54
2023-01-15T15:18:12.536Z,54.90
2023-01-15T15:20:19.288Z,54.94
2023-01-15T15:22:25.009Z,54.88
2023-01-15T15:24:31.453Z,54.54
2023-01-15T15:26:35.866Z,54.68
2023-01-15T15:28:37.825Z,54.73
2023-01-15T15:30:46.188Z,54.68
2023-01-15T15:32:48.228Z,54.91
2023-01-15T15:34:53.039Z,54.76
2023-01-15T15:36:58.567Z,54.58
2023-01-15T15:39:19.375Z,54.59
2023-01-15T15:41:44.892Z,54.61
2023-01-15T15:44:12.741Z,54.44
2023-01-15T15:46:52.006Z,54.92
2023-01-15T15:48:58.045Z,54.74
2023-01-15T15:51:00.292Z,55.09
2023-01-15T15:53:06.979Z,54.66
2023-01-15T15:55:16.273Z,54.59
2023-01-15T15:57:20.038Z,54.96
2023-01-15T15:59:27.829Z,54.58
2023-01-15T16:01:29.921Z,54.93
2023-01-15T16:03:33.289Z,54.79
2023-01-15T16:05:35.965Z,55.00
2023-01-15T16:07:37.946Z,55.06
2023-01-15T16:09:42.646Z,54.85
2023-01-15T16:11:44.741Z,54.93
2023-01-15T16:13:49.836Z,54.71
2023-01-15T16:15:56.205Z,54.82
2023-01-15T16:18:03.550Z,55.18
2023-01-15T16:20:12.725Z,55.43
2023-01-15T16:22:18.041Z,55.20
2023-01-15T16:24:26.317Z,54.98
2023-01-15T16:26:38.966Z,55.02
2023-01-15T16:28:49.331Z,54.86
2023-01-15T16:31:05.425Z,55.46
2023-01-15T16:33:08.239Z,55.40
2023-01-15T16:35:21.082Z,55.60
2023-01-15T16:37:30.809Z,55.19
2023-01-15T16:39:32.701Z,55.24
2023-01-15T16:41:42.423Z,55.59
2023-01-15T16:44:05.954Z,55.50
2023-01-15T16:46:07.905Z,55.27
2023-01-15T16:48:24.565Z,55.27
2023-01-15T16:50:29.904Z,55.35
2023-01-15T16:52:51.281Z,55.60
2023-01-15T16:54:53.426Z,55.50
2023-01-15T16:56:57.145Z,55.81
2023-01-15T16:58:59.080Z,55.42
2023-01-15T17:01:02.491Z,56.12
2023-01-15T17:03:10.782Z,56.62
2023-01-15T17:05:23.830Z,56.85
2023-01-15T17:07:35.583Z,56.91
2023-01-15T17:09:38.169Z,56.83
2023-01-15T17:11:40.978Z,56.97
2023-01-15T17:13:45.284Z,56.86
2023-01-15T17:15:47.699Z,56.71
2023-01-15T17:17:51.394Z,56.64
2023-01-15T17:19:56.395Z,57.07
2023-01-15T17:21:58.461Z,57.33
2023-01-15T17:24:00.368Z,57.31
2023-01-15T17:26:04.430Z,57.49
2023-01-15T17:28:08.289Z,57.37
2023-01-15T17:30:12.758Z,57.90
2023-01-15T17:32:17.825Z,57.87
2023-01-15T17:34:23.553Z,57.77
2023-01-15T17:36:26.399Z,58.16
2023-01-15T17:38:28.283Z,57.89
2023-01-15T17:40:30.771Z,58.30
2023-01-15T17:42:32.785Z,58.01
2023-01-15T17:44:34.722Z,58.15
2023-01-15T17:46:37.165Z,58.22
2023-01-15T17:48:40.175Z,57.79
2023-01-15T17:50:44.277Z,57.59
2023-01-15T17:52:46.914Z,57.36
2023-01-15T17:55:09.869Z,57.48
2023-01-15T17:57:30.815Z,57.33
2023-01-15T17:59:51.496Z,57.48
2023-01-15T18:02:12.588Z,57.45
2023-01-15T18:04:50.715Z,57.76
2023-01-15T18:06:53.903Z,57.68
2023-01-15T18:08:58.803Z,57.63
2023-01-15T18:11:00.940Z,57.53
2023-01-15T18:13:07.761Z,57.62
2023-01-15T18:15:10.260Z,57.81
2023-01-15T18:17:12.108Z,57.86
2023-01-15T18:19:14.336Z,57.85
2023-01-15T18:21:16.772Z,58.10
2023-01-15T18:23:18.824Z,58.26
2023-01-15T18:25:20.783Z,57.87
2023-01-15T18:27:23.240Z,58.14
2023-01-15T18:29:25.380Z,58.47
2023-01-15T18:31:27.632Z,58.37
2023-01-15T18:33:30.317Z,58.39
2023-01-15T18:35:32.611Z,58.74
2023-01-15T18:37:34.618Z,58.45
2023-01-15T18:39:37.417Z,58.33
2023-01-15T18:41:40.520Z,58.32
2023-01-15T18:44:00.684Z,58.15
2023-01-15T18:46:25.164Z,58.07
2023-01-15T18:48:27.729Z,58.21
2023-01-15T18:50:32.044Z,57.87
2023-01-15T18:52:50.240Z,57.95
2023-01-15T18:54:52.306Z,58.09
2023-01-15T18:56:54.174Z,57.95
2023-01-15T18:58:56.857Z,58.00
2023-01-15T19:00:59.159Z,58.01
2023-01-15T19:03:01.031Z,58.37
2023-01-15T19:05:03.086Z,58.86
2023-01-15T19:07:04.936Z,58.61
2023-01-15T19:09:08.617Z,58.81
2023-01-15T19:11:13.707Z,59.20
2023-01-15T19:13:18.195Z,58.99
2023-01-15T19:15:39.485Z,59.35
2023-01-15T19:18:02.889Z,58.91
2023-01-15T19:20:05.970Z,59.55
2023-01-15T19:22:28.079Z,59.62
2023-01-15T19:24:30.484Z,59.80
2023-01-15T19:26:32.395Z,60.44
2023-01-15T19:28:34.310Z,60.52
2023-01-15T19:30:38.860Z,59.75
2023-01-15T19:32:40.934Z,59.86
2023-01-15T19:34:42.749Z,60.55
2023-01-15T19:36:44.961Z,59.95
2023-01-15T19:38:46.763Z,60.61
2023-01-15T19:40:50.288Z,60.61
2023-01-15T19:43:12.219Z,60.46
2023-01-15T19:45:33.496Z,60.71
2023-01-15T19:47:57.156Z,60.21
2023-01-15T19:50:17.708Z,60.21
2023-01-15T19:52:34.897Z,60.17
2023-01-15T19:54:55.536Z,60.73
2023-01-15T19:56:57.501Z,60.60
2023-01-15T19:58:59.385Z,60.30
2023-01-15T20:01:02.104Z,60.17
2023-01-15T20:03:05.348Z,60.32
2023-01-15T20:05:08.976Z,60.22
2023-01-15T20:07:11.620Z,60.44
2023-01-15T20:09:13.702Z,60.81
2023-01-15T20:11:15.969Z,60.52
2023-01-15T20:13:41.487Z,60.70
2023-01-15T20:15:45.872Z,60.83
2023-01-15T20:17:47.903Z,60.53
2023-01-15T20:19:49.967Z,60.46
2023-01-15T20:21:51.714Z,60.46
2023-01-15T20:23:53.548Z,60.81
2023-01-15T20:26:01.586Z,60.56
2023-01-15T20:28:03.445Z,60.63
2023-01-15T20:30:09.299Z,60.68
2023-01-15T20:32:11.239Z,60.16
2023-01-15T20:34:13.061Z,60.33
2023-01-15T20:36:15.436Z,60.08
2023-01-15T20:38:19.095Z,60.24
2023-01-15T20:40:23.864Z,59.90
2023-01-15T20:42:46.350Z,60.06
2023-01-15T20:44:55.348Z,60.57
2023-01-15T20:46:57.449Z,60.02
2023-01-15T20:49:17.673Z,60.38
2023-01-15T20:51:20.114Z,60.00
2023-01-15T20:53:21.945Z,60.16
2023-01-15T20:55:24.822Z,60.46
2023-01-15T20:57:26.664Z,60.33
2023-01-15T20:59:28.870Z,60.18
2023-01-15T21:01:30.904Z,60.18
2023-01-15T21:03:32.835Z,59.97
2023-01-15T21:05:34.767Z,59.84
2023-01-15T21:07:37.925Z,60.00
2023-01-15T21:09:39.827Z,60.10
2023-01-15T21:11:42.483Z,59.54
2023-01-15T21:13:46.031Z,59.78
2023-01-15T21:15:58.207Z,59.66
2023-01-15T21:18:00.360Z,59.98
2023-01-15T21:20:02.525Z,59.76
2023-01-15T21:22:04.667Z,59.83
2023-01-15T21:24:06.863Z,59.65
2023-01-15T21:26:08.970Z,59.70
2023-01-15T21:28:11.812Z,59.67
2023-01-15T21:30:15.828Z,59.48
2023-01-15T21:32:17.765Z,59.64
2023-01-15T21:34:20.556Z,59.46
2023-01-15T21:36:23.075Z,59.77
2023-01-15T21:38:25.246Z,59.61
2023-01-15T21:40:27.256Z,59.75
2023-01-15T21:42:55.628Z,59.76
2023-01-15T21:44:57.543Z,60.04
2023-01-15T21:47:02.061Z,59.93
2023-01-15T21:49:05.831Z,60.00
2023-01-15T21:51:07.839Z,59.70
2023-01-15T21:53:10.120Z,60.04
2023-01-15T21:55:13.314Z,60.12
2023-01-15T21:57:16.007Z,60.09
2023-01-15T21:59:20.114Z,59.97
2023-01-15T22:01:23.364Z,59.98
2023-01-15T22:03:25.548Z,60.42
2023-01-15T22:05:27.529Z,60.19
2023-01-15T22:07:29.899Z,59.93
2023-01-15T22:09:31.755Z,60.31
2023-01-15T22:11:45.837Z,60.64
2023-01-15T22:13:51.209Z,60.64
2023-01-15T22:15:54.575Z,61.21
2023-01-15T22:17:57.752Z,60.83
2023-01-15T22:20:00.409Z,61.74
2023-01-15T22:22:13.111Z,62.01
2023-01-15T22:24:15.437Z,62.29
2023-01-15T22:26:22.163Z,61.95
2023-01-15T22:28:24.489Z,61.83
2023-01-15T22:30:26.440Z,61.77
2023-01-15T22:32:28.579Z,61.52
2023-01-15T22:34:31.283Z,61.24
2023-01-15T22:36:33.515Z,61.99
2023-01-15T22:38:35.521Z,61.50
2023-01-15T22:40:37.569Z,61.71
2023-01-15T22:42:42.096Z,61.32
2023-01-15T22:44:45.214Z,61.47
2023-01-15T22:46:50.474Z,61.41
2023-01-15T22:48:52.812Z,61.35
2023-01-15T22:50:54.764Z,61.42
2023-01-15T22:52:56.630Z,61.64
2023-01-15T22:54:58.513Z,61.16
2023-01-15T22:57:00.920Z,60.95
2023-01-15T22:59:03.004Z,60.99
2023-01-15T23:01:05.683Z,61.54
2023-01-15T23:03:08.169Z,61.45
2023-01-15T23:05:11.867Z,61.06
2023-01-15T23:07:14.093Z,61.33
2023-01-15T23:09:16.081Z,61.33
2023-01-15T23:11:18.176Z,61.16
2023-01-15T23:13:21.191Z,61.59
2023-01-15T23:15:23.213Z,61.40
2023-01-15T23:17:25.886Z,61.66
2023-01-15T23:19:28.339Z,61.10
2023-01-15T23:21:30.715Z,60.55
2023-01-15T23:23:33.889Z,60.61
2023-01-15T23:25:35.985Z,60.91
2023-01-15T23:27:38.289Z,60.85
2023-01-15T23:29:40.956Z,60.05
2023-01-15T23:31:42.982Z,59.71
2023-01-15T23:33:45.433Z,59.46
2023-01-15T23:35:47.601Z,59.13
2023-01-15T23:37:49.857Z,59.16
2023-01-15T23:39:52.205Z,58.61
2023-01-15T23:42:12.560Z,58.59
2023-01-15T23:44:38.919Z,57.79
2023-01-15T23:46:41.259Z,58.14
2023-01-15T23:48:43.459Z,57.68
2023-01-15T23:50:45.421Z,57.65
2023-01-15T23:52:47.424Z,57.61
2023-01-15T23:54:49.412Z,57.40
2023-01-15T23:56:51.738Z,57.45
2023-01-15T23:58:54.006Z,56.90
